createdAt,value
2017-04-30T02:13:46.797Z,20.77
2017-04-30T02:16:13.423Z,22.15
2017-04-30T02:18:41.896Z,22.52
2017-04-30T02:21:09.107Z,21.85
2017-04-30T02:23:35.842Z,21.53
2017-04-30T02:26:02.686Z,21.45
2017-04-30T02:28:29.360Z,21.20
2017-04-30T02:30:56.007Z,21.63
2017-04-30T02:33:22.631Z,20.40
2017-04-30T02:35:49.251Z,20.92
2017-04-30T02:38:16.291Z,21.63
2017-04-30T02:40:42.911Z,21.28
2017-04-30T02:43:09.527Z,20.32
2017-04-30T02:45:36.186Z,21.18
2017-04-30T02:48:02.819Z,20.03
2017-04-30T02:50:29.440Z,20.62
2017-04-30T02:52:56.127Z,20.95
2017-04-30T02:55:22.746Z,21.93
2017-04-30T02:57:49.365Z,20.62
2017-04-30T03:00:16.019Z,20.38
2017-04-30T03:02:42.647Z,19.08
2017-04-30T03:05:09.262Z,22.25
2017-04-30T03:07:35.904Z,21.50
2017-04-30T03:10:02.551Z,22.63
2017-04-30T03:12:31.302Z,20.78
2017-04-30T03:14:57.998Z,21.98
2017-04-30T03:17:24.620Z,23.23
2017-04-30T03:19:51.237Z,20.95
2017-04-30T03:22:17.875Z,21.38
2017-04-30T03:24:44.495Z,23.15
2017-04-30T03:27:11.117Z,21.72
2017-04-30T03:29:37.770Z,22.10
2017-04-30T03:32:04.403Z,22.73
2017-04-30T03:34:31.015Z,21.13
2017-04-30T03:36:57.671Z,22.63
2017-04-30T03:39:30.280Z,23.08
2017-04-30T03:42:02.686Z,22.92
2017-04-30T03:44:35.083Z,23.63
2017-04-30T03:47:07.543Z,22.60
2017-04-30T03:49:40.039Z,22.30
2017-04-30T03:52:12.675Z,24.62
2017-04-30T03:54:45.066Z,22.43
2017-04-30T03:57:17.755Z,24.03
2017-04-30T03:59:50.275Z,25.22
2017-04-30T04:02:22.868Z,26.50
2017-04-30T04:04:55.652Z,24.02
2017-04-30T04:07:28.203Z,25.07
2017-04-30T04:10:00.593Z,26.25
2017-04-30T04:12:33.183Z,26.20
2017-04-30T04:15:05.735Z,23.88
2017-04-30T04:17:38.218Z,27.18
2017-04-30T04:20:10.554Z,23.57
2017-04-30T04:22:43.196Z,25.08
2017-04-30T04:25:15.715Z,26.53
2017-04-30T04:27:48.422Z,25.23
2017-04-30T04:30:20.901Z,25.22
2017-04-30T04:32:53.568Z,25.20
2017-04-30T04:35:25.999Z,26.65
2017-04-30T04:37:58.594Z,24.08
2017-04-30T04:40:30.983Z,26.15
2017-04-30T04:43:03.519Z,25.20
2017-04-30T04:45:36.167Z,23.82
2017-04-30T04:48:08.651Z,26.43
2017-04-30T04:50:41.192Z,26.53
2017-04-30T04:53:13.855Z,26.07
2017-04-30T04:55:46.354Z,26.32
2017-04-30T04:58:19.055Z,27.53
2017-04-30T05:00:51.638Z,23.23
2017-04-30T05:03:24.123Z,25.02
2017-04-30T05:05:56.570Z,25.40
2017-04-30T05:08:29.083Z,24.78
2017-04-30T05:11:01.447Z,27.40
2017-04-30T05:13:34.036Z,27.12
2017-04-30T05:16:06.407Z,25.55
2017-04-30T05:18:38.946Z,26.38
2017-04-30T05:21:11.334Z,25.20
2017-04-30T05:23:43.960Z,23.58
2017-04-30T05:26:16.596Z,23.93
2017-04-30T05:28:49.211Z,24.52
2017-04-30T05:31:21.689Z,24.47
2017-04-30T05:33:54.264Z,28.38
2017-04-30T05:36:26.687Z,23.77
2017-04-30T05:38:59.322Z,25.33
2017-04-30T05:41:31.739Z,25.02
2017-04-30T05:44:04.455Z,23.30
2017-04-30T05:46:37.018Z,25.77
2017-04-30T05:49:09.451Z,24.47
2017-04-30T05:51:41.807Z,23.63
2017-04-30T05:54:14.395Z,23.82
2017-04-30T05:56:46.887Z,23.55
2017-04-30T05:59:20.458Z,23.50
2017-04-30T06:01:52.840Z,23.35
2017-04-30T06:04:25.475Z,21.58
2017-04-30T06:06:58.099Z,23.83
2017-04-30T06:09:30.691Z,22.63
2017-04-30T06:12:03.087Z,22.20
2017-04-30T06:14:35.723Z,22.97
2017-04-30T06:17:08.209Z,23.38
2017-04-30T06:19:40.815Z,25.63
2017-04-30T06:22:13.222Z,21.02
2017-04-30T06:24:45.855Z,23.27
2017-04-30T06:27:18.253Z,22.98
2017-04-30T06:29:50.907Z,22.90
2017-04-30T06:32:23.236Z,24.40
2017-04-30T06:34:56.311Z,23.33
2017-04-30T06:37:28.911Z,23.68
2017-04-30T06:40:01.431Z,22.82
2017-04-30T06:42:33.953Z,22.78
2017-04-30T06:45:06.512Z,22.33
2017-04-30T06:47:39.127Z,23.80
2017-04-30T06:50:11.591Z,23.27
2017-04-30T06:52:45.135Z,22.87
2017-04-30T06:55:17.675Z,21.75
2017-04-30T06:57:50.121Z,22.98
2017-04-30T07:00:22.747Z,21.52
2017-04-30T07:02:55.171Z,20.93
2017-04-30T07:05:27.688Z,20.57
2017-04-30T07:08:00.079Z,20.62
2017-04-30T07:10:32.623Z,21.08
2017-04-30T07:13:05.064Z,20.62
2017-04-30T07:15:37.703Z,21.62
2017-04-30T07:18:10.267Z,20.48
2017-04-30T07:20:42.787Z,19.82
2017-04-30T07:23:15.303Z,20.37
2017-04-30T07:25:47.833Z,20.32
2017-04-30T07:28:20.303Z,18.73
2017-04-30T07:30:52.756Z,21.22
2017-04-30T07:33:28.549Z,19.68
2017-04-30T07:36:01.130Z,19.75
2017-04-30T07:38:33.467Z,18.67
2017-04-30T07:41:06.038Z,19.52
2017-04-30T07:43:32.656Z,18.28
2017-04-30T07:45:59.274Z,18.02
2017-04-30T07:48:25.960Z,18.67
2017-04-30T07:50:52.575Z,17.85
2017-04-30T07:53:19.200Z,17.20
2017-04-30T07:55:45.871Z,17.42
2017-04-30T07:58:12.495Z,17.32
2017-04-30T08:00:39.117Z,17.25
2017-04-30T08:03:05.771Z,15.57
2017-04-30T08:05:32.393Z,16.17
2017-04-30T08:07:59.007Z,16.68
2017-04-30T08:10:25.647Z,16.00
2017-04-30T08:12:52.383Z,16.65
2017-04-30T08:15:19.003Z,14.88
2017-04-30T08:17:45.672Z,16.55
2017-04-30T08:20:12.331Z,14.55
2017-04-30T08:22:38.944Z,13.77
2017-04-30T08:25:05.610Z,15.38
2017-04-30T08:27:32.231Z,15.88
2017-04-30T08:29:58.854Z,14.73
2017-04-30T08:32:25.533Z,13.77
2017-04-30T08:34:52.159Z,13.93
2017-04-30T08:37:18.799Z,11.38
2017-04-30T08:39:45.447Z,13.55
2017-04-30T08:42:12.066Z,13.13
2017-04-30T08:44:39.711Z,13.83
2017-04-30T08:47:06.359Z,17.07
2017-04-30T08:49:32.975Z,12.37
2017-04-30T08:51:59.590Z,13.33
2017-04-30T08:54:26.231Z,13.55
2017-04-30T08:56:52.851Z,12.92
2017-04-30T08:59:19.483Z,12.43
2017-04-30T09:01:46.131Z,12.20
2017-04-30T09:04:12.759Z,13.65
2017-04-30T09:06:39.379Z,13.55
2017-04-30T09:09:06.027Z,12.90
2017-04-30T09:11:32.647Z,11.63
2017-04-30T09:13:59.266Z,11.98
2017-04-30T09:16:25.907Z,11.88
2017-04-30T09:18:52.527Z,11.57
2017-04-30T09:21:19.143Z,12.33
2017-04-30T09:23:45.799Z,12.20
2017-04-30T09:26:12.419Z,10.53
2017-04-30T09:28:39.034Z,11.68
2017-04-30T09:31:05.699Z,11.80
2017-04-30T09:33:32.323Z,11.48
2017-04-30T09:35:58.994Z,10.82
2017-04-30T09:38:25.635Z,10.12
2017-04-30T09:40:52.267Z,10.00
2017-04-30T09:43:18.895Z,7.93
2017-04-30T09:45:45.531Z,9.10
2017-04-30T09:48:12.147Z,8.28
2017-04-30T09:50:38.862Z,8.70
2017-04-30T09:53:05.496Z,9.55
2017-04-30T09:55:32.159Z,8.62
2017-04-30T09:57:58.778Z,8.32
2017-04-30T10:00:25.410Z,9.40
2017-04-30T10:02:52.031Z,6.88
2017-04-30T10:05:18.650Z,9.33
2017-04-30T10:07:45.307Z,7.57
2017-04-30T10:10:11.919Z,7.90
2017-04-30T10:12:38.535Z,9.58
2017-04-30T10:15:05.173Z,8.88
2017-04-30T10:17:31.789Z,7.78
2017-04-30T10:19:58.403Z,7.48
2017-04-30T10:22:25.039Z,7.72
2017-04-30T10:24:51.655Z,8.18
2017-04-30T10:27:18.284Z,8.45
2017-04-30T10:29:44.938Z,11.70
2017-04-30T10:32:11.566Z,12.12
2017-04-30T10:34:39.594Z,19.15
2017-04-30T10:37:06.745Z,19.72
2017-04-30T10:39:34.408Z,15.30
2017-04-30T10:42:03.095Z,28.83
2017-04-30T10:44:31.943Z,27.43
2017-04-30T10:46:59.761Z,14.02
2017-04-30T10:49:28.132Z,23.17
2017-04-30T10:51:55.471Z,17.53
2017-04-30T10:54:23.340Z,12.42
2017-04-30T10:56:50.437Z,9.05
2017-04-30T10:59:19.193Z,14.57
2017-04-30T11:01:47.095Z,17.20
2017-04-30T11:04:15.264Z,9.92
2017-04-30T11:06:43.721Z,11.05
2017-04-30T11:09:13.825Z,8.35
2017-04-30T11:11:42.295Z,9.10
2017-04-30T11:14:09.339Z,13.45
2017-04-30T11:16:35.970Z,13.55
2017-04-30T11:19:03.580Z,11.02
2017-04-30T11:21:30.377Z,11.72
2017-04-30T11:23:57.040Z,9.25
2017-04-30T11:26:23.681Z,13.97
2017-04-30T11:28:50.319Z,10.73
2017-04-30T11:31:16.952Z,9.98
2017-04-30T11:33:43.591Z,11.10
2017-04-30T11:36:10.255Z,12.03
2017-04-30T11:38:36.938Z,8.43
2017-04-30T11:41:03.680Z,9.77
2017-04-30T11:43:30.346Z,8.52
2017-04-30T11:45:56.958Z,8.08
2017-04-30T11:48:23.593Z,8.90
2017-04-30T11:50:50.230Z,7.67
2017-04-30T11:53:16.853Z,9.57
2017-04-30T11:55:43.474Z,12.57
2017-04-30T11:58:10.111Z,10.65
2017-04-30T12:00:38.499Z,9.73
2017-04-30T12:03:05.130Z,10.65
2017-04-30T12:05:32.006Z,17.02
2017-04-30T12:07:58.652Z,18.02
2017-04-30T12:10:25.521Z,11.35
2017-04-30T12:12:52.449Z,14.55
2017-04-30T12:15:19.114Z,13.13
2017-04-30T12:17:45.742Z,10.50
2017-04-30T12:20:12.382Z,13.30
2017-04-30T12:22:38.998Z,14.17
2017-04-30T12:25:05.647Z,16.08
2017-04-30T12:27:32.263Z,21.18
2017-04-30T12:29:58.906Z,17.50
2017-04-30T12:32:25.667Z,8.37
2017-04-30T12:34:52.365Z,9.45
2017-04-30T12:37:18.996Z,13.00
2017-04-30T12:39:45.660Z,20.53
2017-04-30T12:42:12.303Z,8.85
2017-04-30T12:44:40.798Z,9.70
2017-04-30T12:47:07.526Z,8.52
2017-04-30T12:49:34.163Z,11.90
2017-04-30T12:52:00.831Z,11.52
2017-04-30T12:54:27.486Z,6.70
2017-04-30T12:56:54.147Z,6.68
2017-04-30T12:59:20.784Z,11.60
2017-04-30T13:01:47.460Z,4.75
2017-04-30T13:04:14.085Z,5.53
2017-04-30T13:06:40.723Z,4.97
2017-04-30T13:09:07.399Z,28.13
2017-04-30T13:11:34.091Z,12.32
2017-04-30T13:14:00.744Z,6.32
2017-04-30T13:16:27.459Z,13.72
2017-04-30T13:18:54.130Z,15.37
2017-04-30T13:21:20.775Z,13.18
2017-04-30T13:23:47.407Z,6.46
2017-04-30T13:26:14.019Z,7.26
2017-04-30T13:28:40.635Z,15.94
2017-04-30T13:31:07.269Z,5.32
2017-04-30T13:33:33.880Z,5.40
2017-04-30T13:36:00.551Z,19.70
2017-04-30T13:38:27.176Z,3.08
2017-04-30T13:40:53.793Z,24.28
2017-04-30T13:43:20.467Z,4.80
2017-04-30T13:45:47.111Z,3.86
2017-04-30T13:48:13.728Z,17.42
2017-04-30T13:50:40.335Z,8.28
2017-04-30T13:53:06.959Z,8.76
2017-04-30T13:55:33.588Z,10.64
2017-04-30T13:58:00.205Z,8.26
2017-04-30T14:00:26.871Z,3.64
2017-04-30T14:02:53.498Z,11.36
2017-04-30T14:05:20.127Z,6.12
2017-04-30T14:07:46.774Z,8.54
2017-04-30T14:10:13.383Z,6.36
2017-04-30T14:12:40.003Z,3.02
2017-04-30T14:15:06.665Z,4.94
2017-04-30T14:17:33.299Z,4.12
2017-04-30T14:19:59.910Z,3.80
2017-04-30T14:22:26.532Z,3.88
2017-04-30T14:24:53.270Z,3.52
2017-04-30T14:27:19.910Z,4.12
2017-04-30T14:29:46.523Z,5.44
2017-04-30T14:32:13.163Z,3.42
2017-04-30T14:34:39.820Z,4.06
2017-04-30T14:37:06.426Z,3.04
2017-04-30T14:39:33.066Z,3.72
2017-04-30T14:41:59.686Z,3.22
2017-04-30T14:44:26.299Z,4.32
2017-04-30T14:46:53.017Z,2.92
2017-04-30T14:49:19.723Z,3.22
2017-04-30T14:51:46.335Z,3.20
2017-04-30T14:54:12.952Z,3.10
2017-04-30T14:56:39.568Z,2.40
2017-04-30T14:59:06.311Z,2.50
2017-04-30T15:01:32.930Z,3.10
2017-04-30T15:03:59.548Z,3.32
2017-04-30T15:06:27.055Z,2.26
2017-04-30T15:08:53.744Z,2.92
2017-04-30T15:11:20.383Z,2.60
2017-04-30T15:13:46.992Z,2.36
2017-04-30T15:16:13.706Z,2.38
2017-04-30T15:18:40.475Z,2.12
2017-04-30T15:21:07.159Z,2.30
2017-04-30T15:23:33.783Z,2.34
2017-04-30T15:26:00.396Z,3.04
2017-04-30T15:28:27.016Z,1.90
2017-04-30T15:30:53.648Z,2.40
2017-04-30T15:33:20.255Z,2.16
2017-04-30T15:35:46.921Z,2.26
2017-04-30T15:38:13.668Z,1.94
2017-04-30T15:40:40.301Z,2.32
2017-04-30T15:43:06.940Z,2.22
2017-04-30T15:45:33.563Z,2.74
2017-04-30T15:48:00.167Z,1.88
2017-04-30T15:50:26.774Z,2.60
2017-04-30T15:52:53.415Z,1.70
2017-04-30T15:55:20.027Z,2.10
2017-04-30T15:57:46.634Z,2.24
2017-04-30T16:00:13.263Z,2.58
2017-04-30T16:02:39.875Z,2.74
2017-04-30T16:05:06.494Z,2.36
2017-04-30T16:07:33.240Z,2.96
2017-04-30T16:09:59.945Z,2.12
2017-04-30T16:12:26.675Z,2.68
2017-04-30T16:14:53.300Z,2.76
2017-04-30T16:17:20.019Z,3.50
2017-04-30T16:19:46.631Z,2.85
2017-04-30T16:22:13.266Z,3.38
2017-04-30T16:24:39.866Z,2.75
2017-04-30T16:27:06.507Z,3.90
2017-04-30T16:29:33.135Z,4.23
2017-04-30T16:31:59.742Z,3.20
2017-04-30T16:34:26.358Z,4.40
2017-04-30T16:36:52.986Z,3.57
2017-04-30T16:39:19.715Z,3.43
2017-04-30T16:41:46.323Z,3.80
2017-04-30T16:44:13.120Z,3.97
2017-04-30T16:46:39.726Z,4.02
2017-04-30T16:49:06.340Z,4.62
2017-04-30T16:51:32.963Z,3.97
2017-04-30T16:53:59.638Z,4.70
2017-04-30T16:56:26.299Z,3.68
2017-04-30T16:58:53.136Z,4.35
2017-04-30T17:01:19.744Z,4.70
2017-04-30T17:03:46.359Z,5.03
2017-04-30T17:06:12.986Z,4.28
2017-04-30T17:08:39.626Z,4.17
2017-04-30T17:11:06.251Z,4.63
2017-04-30T17:13:32.878Z,4.55
2017-04-30T17:15:59.494Z,4.35
2017-04-30T17:18:26.115Z,4.65
2017-04-30T17:20:52.735Z,4.98
2017-04-30T17:23:19.351Z,5.42
2017-04-30T17:25:45.971Z,4.38
2017-04-30T17:28:12.690Z,4.28
2017-04-30T17:30:39.298Z,4.97
2017-04-30T17:33:05.907Z,5.07
2017-04-30T17:35:32.529Z,4.92
2017-04-30T17:37:59.132Z,4.80
2017-04-30T17:40:25.747Z,5.12
2017-04-30T17:42:52.376Z,5.47
2017-04-30T17:45:18.990Z,5.13
2017-04-30T17:47:45.619Z,5.03
2017-04-30T17:50:12.338Z,5.07
2017-04-30T17:52:38.952Z,4.80
2017-04-30T17:55:05.560Z,5.48
2017-04-30T17:57:32.184Z,7.05
2017-04-30T17:59:58.829Z,6.37
2017-04-30T18:02:25.444Z,13.37
2017-04-30T18:04:52.071Z,5.42
2017-04-30T18:07:18.748Z,7.72
2017-04-30T18:09:45.383Z,5.68
2017-04-30T18:12:12.011Z,6.00
2017-04-30T18:14:38.619Z,8.55
2017-04-30T18:17:05.227Z,8.17
2017-04-30T18:19:31.854Z,7.67
2017-04-30T18:21:58.464Z,6.67
2017-04-30T18:24:25.179Z,6.40
2017-04-30T18:26:51.807Z,6.38
2017-04-30T18:29:18.497Z,7.25
2017-04-30T18:31:45.107Z,6.80
2017-04-30T18:34:11.743Z,6.20
2017-04-30T18:36:38.415Z,5.62
2017-04-30T18:39:05.023Z,5.67
2017-04-30T18:41:31.650Z,6.55
2017-04-30T18:43:58.295Z,8.05
2017-04-30T18:46:24.972Z,6.82
2017-04-30T18:48:51.714Z,10.30
2017-04-30T18:51:18.327Z,6.78
2017-04-30T18:53:44.952Z,11.20
2017-04-30T18:56:11.579Z,6.13
2017-04-30T18:58:38.268Z,9.43
2017-04-30T19:01:04.875Z,6.52
2017-04-30T19:03:31.515Z,5.80
2017-04-30T19:05:58.183Z,6.12
2017-04-30T19:08:24.792Z,6.43
2017-04-30T19:10:51.423Z,6.80
2017-04-30T19:13:18.070Z,6.32
2017-04-30T19:15:44.690Z,6.53
2017-04-30T19:18:11.331Z,18.07
2017-04-30T19:20:37.940Z,7.00
2017-04-30T19:23:04.542Z,6.83
2017-04-30T19:25:31.175Z,11.17
2017-04-30T19:27:57.827Z,6.55
2017-04-30T19:30:24.535Z,6.67
2017-04-30T19:32:51.212Z,7.05
2017-04-30T19:35:17.819Z,6.80
2017-04-30T19:37:44.430Z,7.32
2017-04-30T19:40:11.055Z,6.72
2017-04-30T19:42:37.666Z,6.60
2017-04-30T19:45:04.304Z,6.32
2017-04-30T19:47:30.927Z,6.90
2017-04-30T19:49:57.535Z,7.07
2017-04-30T19:52:24.143Z,6.88
2017-04-30T19:54:51.139Z,7.62
2017-04-30T19:57:17.751Z,6.87
2017-04-30T19:59:44.363Z,7.92
2017-04-30T20:02:10.989Z,7.07
2017-04-30T20:04:37.623Z,7.22
2017-04-30T20:07:04.232Z,7.50
2017-04-30T20:09:30.962Z,7.23
2017-04-30T20:11:57.613Z,7.72
2017-04-30T20:14:24.227Z,11.98
2017-04-30T20:16:50.920Z,8.17
2017-04-30T20:19:17.529Z,8.43
2017-04-30T20:21:44.139Z,8.45
2017-04-30T20:24:10.765Z,7.95
2017-04-30T20:26:37.376Z,8.02
2017-04-30T20:29:03.991Z,8.05
2017-04-30T20:31:30.615Z,8.75
2017-04-30T20:33:57.232Z,7.52
2017-04-30T20:36:23.840Z,8.47
2017-04-30T20:38:50.579Z,8.28
2017-04-30T20:41:17.187Z,8.47
2017-04-30T20:43:43.795Z,9.10
2017-04-30T20:46:10.418Z,8.27
2017-04-30T20:48:37.044Z,9.25
2017-04-30T20:51:03.667Z,8.63
2017-04-30T20:53:30.299Z,9.23
2017-04-30T20:55:56.906Z,8.08
2017-04-30T20:58:23.581Z,10.53
2017-04-30T21:00:50.208Z,8.80
2017-04-30T21:03:16.820Z,8.80
2017-04-30T21:05:43.431Z,9.23
2017-04-30T21:08:10.135Z,8.27
2017-04-30T21:10:36.840Z,9.97
2017-04-30T21:13:04.436Z,8.47
2017-04-30T21:15:31.178Z,8.97
2017-04-30T21:17:57.883Z,8.25
2017-04-30T21:20:24.503Z,8.92
2017-04-30T21:22:51.136Z,9.33
2017-04-30T21:25:17.755Z,9.55
2017-04-30T21:27:44.439Z,10.77
2017-04-30T21:30:11.096Z,9.12
2017-04-30T21:32:37.754Z,9.73
2017-04-30T21:35:04.457Z,8.88
2017-04-30T21:37:31.091Z,10.03
2017-04-30T21:39:57.772Z,8.52
2017-04-30T21:42:24.387Z,9.47
2017-04-30T21:44:51.014Z,9.25
2017-04-30T21:47:17.627Z,8.80
2017-04-30T21:49:44.239Z,10.83
2017-04-30T21:52:10.871Z,17.38
2017-04-30T21:54:37.502Z,9.48
2017-04-30T21:57:04.144Z,9.05
2017-04-30T21:59:30.846Z,9.70
2017-04-30T22:01:57.462Z,10.28
2017-04-30T22:04:24.082Z,9.55
2017-04-30T22:06:50.719Z,10.03
2017-04-30T22:09:17.336Z,12.13
2017-04-30T22:11:43.946Z,11.05
2017-04-30T22:14:10.615Z,12.67
2017-04-30T22:16:37.241Z,13.75
2017-04-30T22:19:03.859Z,11.48
2017-04-30T22:21:30.543Z,13.17
2017-04-30T22:23:57.155Z,11.73
2017-04-30T22:26:23.766Z,11.45
2017-04-30T22:28:50.427Z,11.92
2017-04-30T22:31:17.190Z,15.33
2017-04-30T22:33:43.811Z,11.98
2017-04-30T22:36:10.444Z,25.28
2017-04-30T22:38:37.064Z,13.23
2017-04-30T22:41:03.715Z,11.28
2017-04-30T22:43:30.351Z,12.72
2017-04-30T22:45:58.018Z,12.57
2017-04-30T22:48:24.634Z,16.22
2017-04-30T22:50:51.328Z,13.97
2017-04-30T22:53:17.966Z,11.35
2017-04-30T22:55:44.583Z,10.57
2017-04-30T22:58:11.220Z,11.58
2017-04-30T23:00:37.883Z,12.58
2017-04-30T23:03:04.497Z,12.05
2017-04-30T23:05:31.138Z,10.70
2017-04-30T23:07:57.754Z,11.62
2017-04-30T23:10:24.370Z,11.50
2017-04-30T23:12:51.008Z,10.78
2017-04-30T23:15:17.647Z,11.20
2017-04-30T23:17:44.263Z,11.13
2017-04-30T23:20:10.963Z,11.83
2017-04-30T23:22:37.635Z,11.60
2017-04-30T23:25:04.250Z,11.72
2017-04-30T23:27:31.289Z,12.13
2017-04-30T23:29:57.903Z,11.57
2017-04-30T23:32:24.518Z,12.43
2017-04-30T23:34:51.148Z,12.92
2017-04-30T23:37:17.880Z,12.05
2017-04-30T23:39:44.492Z,11.55
2017-04-30T23:42:11.160Z,10.85
2017-04-30T23:44:37.902Z,11.88
2017-04-30T23:47:04.518Z,11.83
2017-04-30T23:49:31.159Z,12.00
2017-04-30T23:51:57.779Z,13.57
2017-04-30T23:54:24.407Z,12.43
2017-04-30T23:56:51.059Z,12.58
2017-04-30T23:59:17.736Z,11.63
